Time;durP1;ratioP1;P1;durP2;ratioP2;P2;SDS_P1;SDS_P2;PMS_P1;PMS_P2;Temp;Humidity;BMP_temperature;BMP_pressure;BME280_temperature;BME280_humidity;BME280_pressure;Samples;Min_cycle;Max_cycle;Signal;HPM_P1;HPM_P2
2022/10/15 00:01:25;;;;;;;22.55;11.68;;;;;;;11.49;98.80;100669.47;5008760;28;20043;-69
2022/10/15 00:03:52;;;;;;;72.97;14.07;;;;;;;11.44;98.94;100661.72;5010303;28;20045;-69
2022/10/15 00:06:20;;;;;;;44.45;13.25;;;;;;;11.40;98.79;100657.47;5009974;28;20568;-69
2022/10/15 00:08:47;;;;;;;23.95;12.60;;;;;;;11.36;98.81;100665.56;5009006;28;20097;-68
2022/10/15 00:11:19;;;;;;;25.13;12.82;;;;;;;11.34;98.86;100670.91;5011888;28;20086;-68
2022/10/15 00:13:48;;;;;;;26.48;11.45;;;;;;;11.30;98.96;100669.28;5011615;28;20146;-69
2022/10/15 00:16:20;;;;;;;25.23;11.68;;;;;;;11.28;98.86;100661.44;5008940;28;20050;-69
2022/10/15 00:18:49;;;;;;;44.13;11.57;;;;;;;11.26;99.00;100662.38;5011158;28;20039;-70
2022/10/15 00:21:19;;;;;;;23.33;10.10;;;;;;;11.24;99.10;100658.97;5005186;28;20498;-69
2022/10/15 00:23:47;;;;;;;24.75;10.65;;;;;;;11.20;98.96;100663.44;5003368;28;20045;-70
2022/10/15 00:26:21;;;;;;;18.90;10.15;;;;;;;11.17;98.74;100658.31;5011764;28;20161;-70
2022/10/15 00:28:50;;;;;;;;;;;;;;;11.09;98.81;100668.28;5010697;28;20060;-70
2022/10/15 00:31:25;;;;;;;24.25;10.18;;;;;;;11.05;98.95;100672.78;5011474;28;19929;-69
2022/10/15 00:33:57;;;;;;;36.85;10.38;;;;;;;11.00;98.71;100667.66;5009294;28;20512;-69
2022/10/15 00:36:30;;;;;;;35.55;10.32;;;;;;;10.96;98.84;100659.91;5011460;28;20584;-69
2022/10/15 00:38:58;;;;;;;45.42;10.32;;;;;;;10.90;98.83;100662.78;5010177;28;20049;-69
2022/10/15 00:41:29;;;;;;;100.78;11.60;;;;;;;10.85;98.62;100668.19;5011199;28;20046;-69
2022/10/15 00:44:28;;;;;;;13.05;9.02;;;;;;;10.79;98.70;100666.63;5010068;28;20047;-69
2022/10/15 00:47:36;;;;;;;20.33;8.80;;;;;;;10.77;98.68;100662.34;5023191;28;20541;-69
2022/10/15 00:50:11;;;;;;;15.10;9.10;;;;;;;10.72;98.77;100662.50;5001588;28;20050;-69
2022/10/15 00:53:04;;;;;;;14.38;10.18;;;;;;;10.68;98.88;100664.34;5000804;28;20066;-69
2022/10/15 00:55:41;;;;;;;187.77;17.05;;;;;;;10.64;98.72;100672.41;5009478;28;20053;-69
2022/10/15 00:58:16;;;;;;;27.05;9.88;;;;;;;10.61;98.93;100669.91;5005675;28;20623;-69
2022/10/15 01:00:44;;;;;;;12.20;8.52;;;;;;;10.57;98.84;100671.78;5003803;28;20042;-69
2022/10/15 01:03:11;;;;;;;10.85;8.30;;;;;;;10.53;98.72;100675.41;5010212;28;20030;-68
2022/10/15 01:05:40;;;;;;;18.77;9.27;;;;;;;10.49;98.67;100668.50;5010473;28;20048;-69
2022/10/15 01:08:11;;;;;;;13.20;8.80;;;;;;;10.47;98.84;100673.00;5009928;28;20057;-70
2022/10/15 01:10:59;;;;;;;12.38;8.63;;;;;;;10.44;98.68;100675.72;5008366;28;20035;-70
2022/10/15 01:14:09;;;;;;;14.40;9.40;;;;;;;10.38;98.89;100674.97;5010139;28;20046;-70
2022/10/15 01:16:49;;;;;;;11.77;7.75;;;;;;;10.37;98.94;100672.38;5004236;28;20046;-70
2022/10/15 01:19:45;;;;;;;16.40;9.27;;;;;;;10.35;98.78;100676.81;5009060;28;20405;-70
2022/10/15 01:22:45;;;;;;;16.90;9.13;;;;;;;10.37;98.83;100673.28;5009743;28;20043;-70
2022/10/15 01:25:36;;;;;;;16.88;10.88;;;;;;;10.36;98.93;100675.91;5005621;28;20066;-69
2022/10/15 01:28:34;;;;;;;26.17;10.63;;;;;;;10.34;99.00;100659.28;5008789;28;20046;-70
2022/10/15 01:31:17;;;;;;;32.28;11.63;;;;;;;10.33;99.18;100663.72;5007508;28;20042;-66
2022/10/15 01:34:25;;;;;;;15.80;10.35;;;;;;;10.34;99.06;100656.66;5011786;28;20047;-66
2022/10/15 01:37:37;;;;;;;21.73;11.70;;;;;;;10.37;99.63;100653.94;5022589;28;20085;-66
2022/10/15 01:40:23;;;;;;;22.90;11.02;;;;;;;10.43;99.78;100645.00;5008240;28;20130;-66
2022/10/15 01:42:57;;;;;;;23.08;13.48;;;;;;;10.47;99.77;100638.72;5015068;28;20053;-66
2022/10/15 01:45:48;;;;;;;16.52;11.20;;;;;;;10.52;99.84;100640.31;5000954;28;20043;-66
2022/10/15 01:48:37;;;;;;;23.73;12.40;;;;;;;10.56;99.94;100633.16;5005467;28;20042;-66
2022/10/15 01:51:09;;;;;;;29.48;14.45;;;;;;;10.62;100.00;100629.44;5007552;28;20519;-66
2022/10/15 01:53:38;;;;;;;29.42;14.77;;;;;;;10.67;100.00;100633.66;5026014;28;20528;-66
2022/10/15 01:56:18;;;;;;;26.17;14.38;;;;;;;10.73;100.00;100629.94;5007948;28;20072;-66
2022/10/15 01:58:49;;;;;;;33.05;15.93;;;;;;;10.80;100.00;100635.84;5007926;28;20100;-69
2022/10/15 02:01:16;;;;;;;42.33;18.30;;;;;;;10.88;100.00;100629.41;5024354;28;20529;-69
2022/10/15 02:03:51;;;;;;;42.30;19.15;;;;;;;10.95;100.00;100631.81;5009791;28;20046;-69
2022/10/15 02:06:27;;;;;;;;;;;;;;;11.00;100.00;100619.34;5009005;28;20527;-69
2022/10/15 02:09:14;;;;;;;46.30;20.67;;;;;;;11.10;100.00;100622.47;5008337;28;19929;-69
2022/10/15 02:12:26;;;;;;;44.90;19.73;;;;;;;11.18;100.00;100612.53;5009552;28;20540;-69
2022/10/15 02:15:09;;;;;;;44.47;20.02;;;;;;;11.23;100.00;100620.28;5008769;28;20043;-69
2022/10/15 02:17:52;;;;;;;42.58;18.73;;;;;;;11.30;100.00;100621.78;5022844;28;20651;-68
2022/10/15 02:20:27;;;;;;;44.40;20.20;;;;;;;11.34;100.00;100624.25;5000790;28;20517;-68
2022/10/15 02:23:05;;;;;;;43.28;20.05;;;;;;;11.40;100.00;100624.91;5010132;28;20551;-68
2022/10/15 02:25:36;;;;;;;43.85;19.77;;;;;;;11.43;100.00;100623.06;5010842;28;20053;-69
2022/10/15 02:28:07;;;;;;;44.60;19.75;;;;;;;11.47;100.00;100624.66;5008441;28;20053;-68
2022/10/15 02:30:40;;;;;;;37.50;19.02;;;;;;;11.51;100.00;100617.47;5010173;28;20493;-69
2022/10/15 02:33:13;;;;;;;44.60;21.02;;;;;;;11.55;100.00;100615.59;5023089;28;20137;-68
2022/10/15 02:35:43;;;;;;;42.63;20.50;;;;;;;11.57;100.00;100608.44;5006944;28;20394;-68
2022/10/15 02:38:16;;;;;;;36.28;18.67;;;;;;;11.56;100.00;100599.69;5007114;28;20039;-69
2022/10/15 02:40:46;;;;;;;33.90;19.40;;;;;;;11.59;100.00;100604.84;5023199;28;20049;-69
2022/10/15 02:43:18;;;;;;;32.90;18.42;;;;;;;11.61;100.00;100599.50;5006668;28;20045;-69
2022/10/15 02:45:48;;;;;;;37.28;19.70;;;;;;;11.63;100.00;100597.69;5007233;28;20050;-69
2022/10/15 02:48:16;;;;;;;37.70;19.15;;;;;;;11.63;100.00;100600.31;5017723;28;20042;-69
2022/10/15 02:50:46;;;;;;;42.90;19.42;;;;;;;11.64;100.00;100594.13;5005826;28;20531;-69
2022/10/15 02:53:13;;;;;;;34.22;18.02;;;;;;;11.64;100.00;100589.69;5007097;28;20046;-69
2022/10/15 02:55:42;;;;;;;37.03;20.23;;;;;;;11.64;100.00;100594.13;5021062;28;20047;-69
2022/10/15 02:58:09;;;;;;;34.03;19.23;;;;;;;11.67;100.00;100582.56;5014999;28;21091;-68
2022/10/15 03:00:39;;;;;;;33.75;18.27;;;;;;;11.68;100.00;100586.94;5008229;28;20944;-69
2022/10/15 03:03:07;;;;;;;35.63;18.45;;;;;;;11.69;100.00;100591.28;5006833;28;20075;-69
2022/10/15 03:05:34;;;;;;;34.65;18.77;;;;;;;11.70;100.00;100585.94;5013509;28;20049;-68
2022/10/15 03:08:01;;;;;;;34.38;18.33;;;;;;;11.71;100.00;100579.75;5010023;28;20139;-68
2022/10/15 03:10:31;;;;;;;35.03;19.10;;;;;;;11.72;100.00;100576.19;5026828;28;20046;-68
2022/10/15 03:13:03;;;;;;;33.38;19.20;;;;;;;11.74;100.00;100570.84;5012368;28;20464;-69
2022/10/15 03:15:36;;;;;;;35.90;18.52;;;;;;;11.75;100.00;100570.75;5010032;28;20844;-69
2022/10/15 03:18:04;;;;;;;31.67;18.08;;;;;;;11.75;100.00;100562.84;5027191;28;20543;-69
2022/10/15 03:20:31;;;;;;;35.15;19.05;;;;;;;11.76;100.00;100561.94;5009163;28;20150;-69
2022/10/15 03:23:01;;;;;;;33.05;17.88;;;;;;;11.77;100.00;100557.53;5001598;28;20114;-69
2022/10/15 03:25:30;;;;;;;33.47;18.95;;;;;;;11.76;100.00;100564.56;5008055;28;20053;-68
2022/10/15 03:28:01;;;;;;;35.40;18.92;;;;;;;11.75;100.00;100560.19;5010900;28;20070;-69
2022/10/15 03:30:35;;;;;;;29.98;18.25;;;;;;;11.74;100.00;100557.63;5015034;28;20046;-68
2022/10/15 03:33:03;;;;;;;35.42;19.83;;;;;;;11.72;100.00;100562.09;5009778;28;20464;-68
2022/10/15 03:35:31;;;;;;;38.92;20.08;;;;;;;11.68;99.87;100561.38;5016574;28;20043;-69
2022/10/15 03:37:59;;;;;;;32.65;19.80;;;;;;;11.66;99.81;100565.84;5010143;28;20109;-68
2022/10/15 03:40:26;;;;;;;32.15;18.85;;;;;;;11.64;99.77;100565.91;5019500;28;20043;-70
2022/10/15 03:42:56;;;;;;;40.22;21.55;;;;;;;11.62;99.63;100564.25;5009808;28;20057;-70
2022/10/15 03:45:24;;;;;;;38.75;20.85;;;;;;;11.59;99.70;100561.75;5010360;28;20517;-70
2022/10/15 03:48:12;;;;;;;38.35;22.65;;;;;;;11.58;99.93;100568.81;5007934;28;20043;-70
2022/10/15 03:50:39;;;;;;;37.08;22.50;;;;;;;11.61;100.00;100567.81;5011785;28;20393;-70
2022/10/15 03:53:08;;;;;;;44.30;22.70;;;;;;;11.62;100.00;100564.25;5013005;28;20070;-69
2022/10/15 03:55:35;;;;;;;46.65;23.88;;;;;;;11.64;100.00;100567.72;5009977;28;20051;-69
2022/10/15 03:58:02;;;;;;;47.90;24.77;;;;;;;11.65;100.00;100564.13;5008285;28;20046;-69
2022/10/15 04:00:30;;;;;;;40.90;23.83;;;;;;;11.67;100.00;100561.44;5013164;28;20097;-68
2022/10/15 04:03:01;;;;;;;46.80;24.02;;;;;;;11.69;100.00;100556.97;5010981;28;20051;-70
2022/10/15 04:05:29;;;;;;;43.28;23.95;;;;;;;11.69;100.00;100547.25;5011409;28;20042;-70
2022/10/15 04:08:02;;;;;;;47.38;23.85;;;;;;;11.70;100.00;100554.25;5023550;28;20042;-70
2022/10/15 04:10:33;;;;;;;42.15;23.33;;;;;;;11.70;100.00;100554.25;5009665;28;20487;-70
2022/10/15 04:13:00;;;;;;;43.33;23.10;;;;;;;11.73;100.00;100548.00;5013467;28;20046;-70
2022/10/15 04:15:28;;;;;;;45.90;23.42;;;;;;;11.74;100.00;100553.22;5008924;28;20035;-70
2022/10/15 04:17:59;;;;;;;45.60;24.67;;;;;;;11.76;100.00;100553.16;5008131;28;20054;-70
2022/10/15 04:20:28;;;;;;;47.95;25.67;;;;;;;11.77;100.00;100546.97;5010188;28;20501;-69
2022/10/15 04:23:07;;;;;;;46.95;24.63;;;;;;;11.75;100.00;100554.06;5024597;28;20577;-69
2022/10/15 04:25:39;;;;;;;46.70;25.70;;;;;;;11.75;100.00;100554.06;5018825;28;20543;-68
2022/10/15 04:28:07;;;;;;;53.13;25.98;;;;;;;11.75;100.00;100562.00;4998583;28;20504;-69
2022/10/15 04:30:36;;;;;;;45.90;25.50;;;;;;;11.75;100.00;100564.63;5025230;28;20090;-69
2022/10/15 04:33:08;;;;;;;47.28;26.35;;;;;;;11.76;100.00;100564.56;5020157;28;20393;-69
2022/10/15 04:35:35;;;;;;;49.90;24.77;;;;;;;11.79;100.00;100561.81;5008825;28;20046;-69
2022/10/15 04:38:08;;;;;;;41.70;24.85;;;;;;;11.84;100.00;100566.91;5010409;28;20042;-69
2022/10/15 04:41:13;;;;;;;51.85;26.80;;;;;;;11.90;100.00;100568.44;5012410;28;22311;-69
2022/10/15 04:43:57;;;;;;;46.28;24.60;;;;;;;11.92;100.00;100572.75;5026636;28;20111;-69
2022/10/15 04:46:28;;;;;;;47.92;25.80;;;;;;;11.95;100.00;100566.50;5026268;28;20050;-69
2022/10/15 04:48:57;;;;;;;47.75;25.05;;;;;;;11.98;100.00;100568.19;5006550;28;20055;-69
2022/10/15 04:51:25;;;;;;;45.88;23.60;;;;;;;12.00;100.00;100561.06;5011161;28;20057;-70
2022/10/15 04:54:03;;;;;;;50.95;26.17;;;;;;;12.01;100.00;100563.63;5010052;28;20126;-69
2022/10/15 04:56:31;;;;;;;44.60;24.08;;;;;;;12.03;100.00;100563.56;5009846;28;20046;-69
2022/10/15 04:58:58;;;;;;;47.92;24.58;;;;;;;12.06;100.00;100563.44;5021971;28;20074;-69
2022/10/15 05:01:29;;;;;;;47.03;25.67;;;;;;;12.08;100.00;100559.81;5005825;28;20511;-68
2022/10/15 05:04:14;;;;;;;40.55;23.83;;;;;;;12.10;100.00;100565.03;5005378;28;20105;-69
2022/10/15 05:06:42;;;;;;;41.80;23.90;;;;;;;12.11;100.00;100559.69;5010750;28;20039;-69
2022/10/15 05:09:16;;;;;;;43.90;23.20;;;;;;;12.14;100.00;100542.84;5009020;28;20115;-68
2022/10/15 05:11:48;;;;;;;37.15;21.67;;;;;;;12.15;100.00;100549.00;5026463;28;20129;-70
2022/10/15 05:14:15;;;;;;;43.28;23.10;;;;;;;12.16;100.00;100542.78;5006772;28;20049;-69
2022/10/15 05:16:51;;;;;;;46.10;22.90;;;;;;;12.16;100.00;100550.72;5008597;28;20042;-68
2022/10/15 05:19:18;;;;;;;39.15;21.60;;;;;;;12.17;100.00;100555.06;5006051;28;20551;-67
2022/10/15 05:21:48;;;;;;;41.92;22.85;;;;;;;12.19;100.00;100554.09;5010502;28;20056;-68
2022/10/15 05:24:23;;;;;;;44.38;22.48;;;;;;;12.23;100.00;100565.38;5026724;28;20042;-68
2022/10/15 05:26:59;;;;;;;40.72;22.02;;;;;;;12.26;100.00;100568.75;5009969;28;20487;-69
2022/10/15 05:29:31;;;;;;;47.30;22.50;;;;;;;12.31;100.00;100565.91;5010124;28;20042;-68
2022/10/15 05:31:59;;;;;;;52.10;23.27;;;;;;;12.35;100.00;100556.06;5002366;28;20501;-69
2022/10/15 05:34:29;;;;;;;46.88;23.55;;;;;;;12.39;100.00;100561.16;5010172;28;20142;-69
2022/10/15 05:37:03;;;;;;;48.42;24.35;;;;;;;12.42;100.00;100561.03;5010697;28;20082;-70
2022/10/15 05:39:31;;;;;;;46.92;23.67;;;;;;;12.47;100.00;100565.25;5010288;28;20457;-70
2022/10/15 05:41:59;;;;;;;48.97;23.17;;;;;;;12.51;100.00;100558.94;5011247;28;20105;-70
2022/10/15 05:44:35;;;;;;;48.53;25.17;;;;;;;12.52;100.00;100566.78;5011025;28;20042;-70
2022/10/15 05:47:02;;;;;;;46.25;24.70;;;;;;;12.57;100.00;100574.50;5026395;28;20038;-69
2022/10/15 05:49:29;;;;;;;45.38;23.13;;;;;;;12.58;100.00;100577.13;5008036;28;20089;-69
2022/10/15 05:52:09;;;;;;;42.25;22.58;;;;;;;12.61;100.00;100572.63;5008808;28;20059;-68
2022/10/15 05:54:59;;;;;;;49.63;23.55;;;;;;;12.61;100.00;100580.56;5011179;28;20050;-68
2022/10/15 05:57:26;;;;;;;50.25;23.55;;;;;;;12.63;100.00;100578.69;5010080;28;20424;-68
2022/10/15 05:59:54;;;;;;;52.00;23.98;;;;;;;12.64;100.00;100578.63;5008799;28;20529;-67
2022/10/15 06:02:21;;;;;;;44.28;22.63;;;;;;;12.67;100.00;100572.34;5006764;28;20793;-67
2022/10/15 06:04:50;;;;;;;44.67;22.48;;;;;;;12.68;100.00;100582.00;5009517;28;20069;-70
2022/10/15 06:07:19;;;;;;;44.22;23.27;;;;;;;12.69;100.00;100576.63;5011740;28;20073;-70
2022/10/15 06:09:47;;;;;;;45.83;22.50;;;;;;;12.70;100.00;100574.88;5009016;28;20035;-70
2022/10/15 06:12:16;;;;;;;44.55;23.00;;;;;;;12.71;100.00;100571.31;5013303;28;20054;-70
2022/10/15 06:14:43;;;;;;;44.25;21.40;;;;;;;12.73;100.00;100583.53;5009945;28;20062;-70
2022/10/15 06:17:10;;;;;;;39.00;20.90;;;;;;;12.77;100.00;100586.91;5011489;28;20086;-70
2022/10/15 06:19:41;;;;;;;41.10;21.65;;;;;;;12.77;100.00;100578.13;5011669;28;20081;-71
2022/10/15 06:22:09;;;;;;;38.50;21.40;;;;;;;12.80;100.00;100580.59;5010352;28;20046;-70
2022/10/15 06:24:36;;;;;;;43.05;21.00;;;;;;;12.81;100.00;100577.03;5008837;28;20531;-69
2022/10/15 06:27:08;;;;;;;40.97;21.00;;;;;;;12.85;100.00;100574.19;5015143;28;20042;-70
2022/10/15 06:29:36;;;;;;;39.30;20.55;;;;;;;12.91;100.00;100565.13;5009773;28;20061;-69
2022/10/15 06:32:04;;;;;;;36.83;19.67;;;;;;;12.97;100.00;100564.84;5026556;28;20475;-70
2022/10/15 06:34:31;;;;;;;35.28;18.88;;;;;;;13.02;100.00;100569.94;5028009;28;20049;-70
2022/10/15 06:36:58;;;;;;;36.53;19.42;;;;;;;13.07;100.00;100572.38;5025365;28;20057;-69
2022/10/15 06:39:28;;;;;;;33.95;18.40;;;;;;;13.10;100.00;100580.16;5029408;28;20088;-69
2022/10/15 06:41:56;;;;;;;33.70;19.98;;;;;;;13.13;100.00;100583.53;5025853;28;20046;-69
2022/10/15 06:44:33;;;;;;;31.77;17.77;;;;;;;13.17;100.00;100589.56;5029415;28;20101;-68
2022/10/15 06:47:03;;;;;;;31.27;18.17;;;;;;;13.22;100.00;100592.84;5036458;28;20054;-69
2022/10/15 06:49:30;;;;;;;33.53;18.90;;;;;;;13.24;100.00;100590.13;5030232;28;20054;-69
2022/10/15 06:51:58;;;;;;;30.52;16.75;;;;;;;13.26;100.00;100591.78;5031596;28;20042;-69
2022/10/15 06:54:29;;;;;;;27.55;17.23;;;;;;;13.28;100.00;100584.63;5026835;28;20120;-69
2022/10/15 06:56:57;;;;;;;29.58;16.40;;;;;;;13.31;100.00;100583.66;5030848;28;20048;-69
2022/10/15 06:59:24;;;;;;;28.27;17.30;;;;;;;13.38;100.00;100581.56;5032195;28;20065;-69
2022/10/15 07:01:52;;;;;;;29.05;16.58;;;;;;;13.45;100.00;100580.38;5034509;28;20046;-69
2022/10/15 07:04:22;;;;;;;30.00;17.20;;;;;;;13.50;99.92;100573.06;5030223;28;20125;-70
2022/10/15 07:06:49;;;;;;;26.48;16.20;;;;;;;13.56;99.86;100574.56;5028876;28;20804;-69
2022/10/15 07:09:19;;;;;;;26.77;15.68;;;;;;;13.58;99.34;100581.50;5030120;28;20688;-69
2022/10/15 07:11:49;;;;;;;26.75;15.73;;;;;;;13.62;99.03;100574.31;5030969;28;20046;-69
2022/10/15 07:14:16;;;;;;;26.98;15.93;;;;;;;13.67;99.04;100572.28;5030647;28;20603;-69
2022/10/15 07:16:44;;;;;;;24.20;15.23;;;;;;;13.72;98.91;100575.59;5033994;28;20588;-69
2022/10/15 07:19:11;;;;;;;26.85;16.48;;;;;;;13.79;98.71;100579.66;5029003;28;20108;-70
2022/10/15 07:21:38;;;;;;;22.80;15.38;;;;;;;13.86;98.51;100579.34;5050804;28;20542;-69
2022/10/15 07:24:05;;;;;;;27.00;16.23;;;;;;;13.97;98.30;100579.69;5041314;28;20045;-70
2022/10/15 07:26:33;;;;;;;25.17;16.13;;;;;;;14.07;97.87;100580.94;5030540;28;20042;-69
2022/10/15 07:29:03;;;;;;;26.52;15.90;;;;;;;14.18;97.18;100585.75;5028632;28;20508;-69
2022/10/15 07:31:31;;;;;;;29.88;15.20;;;;;;;14.28;96.51;100587.00;5047549;28;20061;-69
2022/10/15 07:33:59;;;;;;;24.10;15.63;;;;;;;14.31;96.66;100578.03;5025119;28;20038;-69
2022/10/15 07:36:26;;;;;;;22.88;14.35;;;;;;;14.30;96.29;100581.63;5029461;28;20104;-70
2022/10/15 07:38:53;;;;;;;22.50;14.68;;;;;;;14.26;95.92;100574.72;5029229;28;20050;-70
2022/10/15 07:41:21;;;;;;;26.50;15.43;;;;;;;14.19;95.58;100578.63;5029951;28;20046;-70
2022/10/15 07:43:52;;;;;;;22.80;14.48;;;;;;;14.15;95.59;100572.63;5032311;28;20054;-69
2022/10/15 07:46:19;;;;;;;27.42;16.05;;;;;;;14.13;95.52;100577.16;5028441;28;20440;-69
2022/10/15 07:48:52;;;;;;;24.98;14.73;;;;;;;14.13;95.72;100563.88;5034028;28;20045;-69
2022/10/15 07:51:19;;;;;;;26.00;15.50;;;;;;;14.13;95.62;100559.47;5024355;28;20085;-70
2022/10/15 07:53:46;;;;;;;24.75;15.32;;;;;;;14.12;95.57;100563.03;5033876;28;20042;-69
2022/10/15 07:56:15;;;;;;;29.55;15.95;;;;;;;14.20;95.58;100572.41;5047467;28;20112;-68
2022/10/15 07:58:50;;;;;;;24.88;15.95;;;;;;;14.31;95.52;100570.06;5022639;28;20053;-69
2022/10/15 08:01:20;;;;;;;31.65;16.63;;;;;;;14.40;95.60;100564.31;5032369;28;20049;-68
2022/10/15 08:03:47;;;;;;;29.35;19.55;;;;;;;14.47;95.43;100564.84;5030353;28;20045;-69
2022/10/15 08:06:14;;;;;;;29.17;17.52;;;;;;;14.55;95.47;100554.69;5030976;28;20041;-69
2022/10/15 08:08:42;;;;;;;28.65;18.13;;;;;;;14.57;95.30;100544.00;5032761;28;20042;-70
2022/10/15 08:11:12;;;;;;;29.42;17.42;;;;;;;14.59;94.83;100545.66;5033308;28;20072;-69
2022/10/15 08:13:41;;;;;;;25.92;17.10;;;;;;;14.50;94.41;100534.66;5033661;28;20534;-69
2022/10/15 08:16:14;;;;;;;27.50;17.80;;;;;;;14.42;94.37;100538.56;5031256;28;20045;-70
2022/10/15 08:18:48;;;;;;;26.50;17.42;;;;;;;14.36;94.18;100552.13;5030942;28;20867;-71
2022/10/15 08:21:15;;;;;;;28.60;18.00;;;;;;;14.33;94.32;100547.00;5029364;28;20548;-70
2022/10/15 08:23:42;;;;;;;26.13;17.65;;;;;;;14.36;94.26;100553.94;5029733;28;20034;-70
2022/10/15 08:26:09;;;;;;;28.10;17.83;;;;;;;14.43;94.60;100550.91;5032103;28;20096;-71
2022/10/15 08:28:36;;;;;;;27.92;18.35;;;;;;;14.50;94.63;100539.97;5032042;28;20037;-70
2022/10/15 08:31:04;;;;;;;29.55;18.60;;;;;;;14.60;94.45;100541.19;5031802;28;20088;-70
2022/10/15 08:33:35;;;;;;;29.98;18.33;;;;;;;14.68;94.59;100540.84;5032233;28;20129;-70
2022/10/15 08:36:06;;;;;;;29.55;18.02;;;;;;;14.70;94.30;100538.97;5032336;28;20041;-70
2022/10/15 08:38:34;;;;;;;25.27;17.63;;;;;;;14.86;94.13;100539.00;5033686;28;20041;-70
2022/10/15 08:41:14;;;;;;;25.60;15.85;;;;;;;15.04;93.98;100540.69;5032999;28;20049;-71
2022/10/15 08:43:45;;;;;;;27.25;16.67;;;;;;;15.26;94.21;100530.69;5033693;28;20049;-71
2022/10/15 08:46:24;;;;;;;26.35;14.23;;;;;;;15.36;93.46;100537.19;5033647;28;20042;-70
2022/10/15 08:48:58;;;;;;;22.35;13.02;;;;;;;15.38;92.73;100525.53;5032624;28;20120;-70
2022/10/15 08:51:33;;;;;;;;;;;;;;;15.34;92.76;100531.13;5034324;28;20048;-71
2022/10/15 08:54:04;;;;;;;19.63;12.18;;;;;;;15.34;91.77;100521.38;5033468;28;19932;-71
2022/10/15 08:56:38;;;;;;;21.05;12.55;;;;;;;15.37;92.35;100525.66;5032551;28;20439;-71
2022/10/15 08:59:39;;;;;;;16.38;11.77;;;;;;;15.41;91.09;100521.88;5033544;28;20042;-71
2022/10/15 09:02:21;;;;;;;17.02;11.63;;;;;;;15.52;91.04;100508.84;5032832;28;20049;-71
2022/10/15 09:05:23;;;;;;;15.70;10.60;;;;;;;15.67;90.54;100509.75;5033849;28;20042;-70
2022/10/15 09:08:13;;;;;;;13.13;9.05;;;;;;;15.80;90.50;100506.41;5033572;28;20042;-71
2022/10/15 09:10:50;;;;;;;13.48;9.20;;;;;;;15.93;90.44;100507.44;5012884;28;20050;-71
2022/10/15 09:13:29;;;;;;;12.48;8.85;;;;;;;16.04;89.99;100490.84;5013066;28;20496;-71
2022/10/15 09:16:04;;;;;;;12.23;8.32;;;;;;;16.17;88.36;100485.69;5012632;28;20042;-71
2022/10/15 09:18:34;;;;;;;;;;;;;;;16.20;88.12;100488.16;5026975;28;20046;-70
2022/10/15 09:21:04;;;;;;;12.20;8.52;;;;;;;16.28;89.02;100493.88;5031363;28;19936;-70
2022/10/15 09:23:35;;;;;;;11.20;7.63;;;;;;;16.36;88.63;100496.06;5032624;28;20044;-70
2022/10/15 09:26:10;;;;;;;10.50;7.25;;;;;;;16.42;87.83;100492.19;5032264;28;20046;-70
2022/10/15 09:28:50;;;;;;;10.52;7.47;;;;;;;16.45;87.58;100492.00;5032683;28;20096;-70
2022/10/15 09:31:30;;;;;;;10.63;7.45;;;;;;;16.43;86.51;100486.75;5032045;28;20045;-70
2022/10/15 09:34:17;;;;;;;14.32;7.22;;;;;;;16.38;86.55;100480.88;5032174;28;20041;-71
2022/10/15 09:37:07;;;;;;;12.43;7.07;;;;;;;16.31;86.41;100484.88;5028255;28;20042;-70
2022/10/15 09:40:24;;;;;;;10.60;7.13;;;;;;;16.24;87.03;100489.69;5031738;28;20136;-70
2022/10/15 09:42:53;;;;;;;10.15;7.43;;;;;;;16.19;87.04;100485.59;5032001;28;20042;-70
2022/10/15 09:45:23;;;;;;;11.80;7.20;;;;;;;16.15;87.18;100484.94;5031700;28;20038;-70
2022/10/15 09:47:51;;;;;;;10.82;6.68;;;;;;;16.11;87.63;100470.09;5032298;28;20120;-70
2022/10/15 09:50:20;;;;;;;15.60;7.47;;;;;;;16.08;87.42;100473.78;5032167;28;20073;-70
2022/10/15 09:53:14;;;;;;;11.68;7.22;;;;;;;16.05;87.26;100468.66;5031381;28;20037;-70
2022/10/15 09:56:12;;;;;;;16.17;7.78;;;;;;;16.08;87.51;100468.47;5030245;28;20050;-70
2022/10/15 09:58:54;;;;;;;10.60;7.55;;;;;;;16.12;87.45;100463.81;5030444;28;20065;-70
2022/10/15 10:01:24;;;;;;;14.52;8.30;;;;;;;16.04;87.77;100458.97;5030454;28;20049;-70
2022/10/15 10:04:18;;;;;;;16.10;8.35;;;;;;;15.95;87.90;100459.50;5031355;28;20077;-70
2022/10/15 10:06:56;;;;;;;11.32;8.05;;;;;;;15.87;87.96;100464.41;5031698;28;20049;-70
2022/10/15 10:09:35;;;;;;;13.07;7.10;;;;;;;15.81;88.19;100462.94;5031697;28;20529;-70
2022/10/15 10:12:07;;;;;;;10.85;6.85;;;;;;;15.77;88.70;100453.47;5024783;28;20042;-70
2022/10/15 10:14:55;;;;;;;11.48;7.18;;;;;;;15.77;89.13;100453.47;5026647;28;20048;-70
2022/10/15 10:17:25;;;;;;;13.93;7.30;;;;;;;15.78;89.52;100449.81;5014626;28;20049;-70
2022/10/15 10:20:20;;;;;;;10.18;7.00;;;;;;;15.79;89.83;100454.19;5030912;28;20052;-70
2022/10/15 10:23:01;;;;;;;10.38;7.07;;;;;;;15.74;90.24;100450.97;5026996;28;20038;-71
2022/10/15 10:25:37;;;;;;;12.82;8.23;;;;;;;15.73;90.60;100458.06;5026895;28;20049;-69
2022/10/15 10:28:14;;;;;;;14.20;8.50;;;;;;;15.68;90.91;100453.03;5029766;28;20037;-69
2022/10/15 10:30:55;;;;;;;10.82;7.72;;;;;;;15.61;91.32;100451.66;5028928;28;20041;-68
2022/10/15 10:33:36;;;;;;;10.82;7.85;;;;;;;15.56;91.45;100455.53;5024060;28;20042;-69
2022/10/15 10:36:06;;;;;;;11.27;7.43;;;;;;;15.48;91.72;100453.31;5027948;28;20153;-68
2022/10/15 10:38:38;;;;;;;9.95;6.78;;;;;;;15.52;91.98;100457.50;5027504;28;20168;-69
2022/10/15 10:41:08;;;;;;;9.50;6.22;;;;;;;15.52;92.60;100455.69;5025336;28;20085;-69
2022/10/15 10:43:39;;;;;;;9.25;6.05;;;;;;;15.49;92.87;100455.03;5023238;28;20112;-70
2022/10/15 10:46:13;;;;;;;9.00;6.13;;;;;;;15.51;92.84;100455.81;5029721;28;20034;-69
2022/10/15 10:48:48;;;;;;;7.90;5.57;;;;;;;15.50;93.01;100451.44;5028244;28;20066;-70
2022/10/15 10:51:29;;;;;;;7.28;4.95;;;;;;;15.51;93.27;100442.53;5030098;28;20045;-69
2022/10/15 10:54:13;;;;;;;9.65;5.72;;;;;;;15.49;93.46;100447.94;5020381;28;20066;-70
2022/10/15 10:56:44;;;;;;;7.07;4.50;;;;;;;15.50;93.60;100439.03;5024297;28;20052;-71
2022/10/15 10:59:25;;;;;;;6.22;4.40;;;;;;;15.60;94.03;100443.81;5031450;28;20038;-67
2022/10/15 11:01:58;;;;;;;7.68;5.03;;;;;;;15.62;94.11;100449.84;5025665;28;20493;-70
2022/10/15 11:04:33;;;;;;;5.63;3.95;;;;;;;15.62;94.04;100447.19;5031003;28;20042;-70
2022/10/15 11:07:14;;;;;;;7.60;4.53;;;;;;;15.65;94.36;100442.59;5025014;28;20125;-69
2022/10/15 11:09:54;;;;;;;5.43;3.78;;;;;;;15.68;94.66;100429.09;5029170;28;20046;-69
2022/10/15 11:12:37;;;;;;;5.20;4.00;;;;;;;15.76;94.58;100433.97;5030978;28;20042;-69
2022/10/15 11:15:52;;;;;;;7.03;3.88;;;;;;;15.87;94.38;100430.75;5030764;28;20042;-70
2022/10/15 11:19:06;;;;;;;5.22;4.05;;;;;;;15.94;93.87;100425.88;5031082;28;20586;-70
2022/10/15 11:22:19;;;;;;;6.28;4.00;;;;;;;16.01;93.68;100426.38;5035286;28;20054;-70
2022/10/15 11:25:13;;;;;;;6.80;3.45;;;;;;;15.94;93.87;100418.78;5035027;28;20042;-68
2022/10/15 11:28:09;;;;;;;5.93;3.90;;;;;;;15.91;94.17;100416.31;5034008;28;20949;-68
2022/10/15 11:31:06;;;;;;;5.32;4.05;;;;;;;15.88;94.18;100416.47;5029740;28;20053;-68
2022/10/15 11:33:49;;;;;;;6.78;3.95;;;;;;;15.88;94.56;100415.63;5033017;28;20042;-69
2022/10/15 11:36:36;;;;;;;6.35;3.70;;;;;;;15.90;94.51;100419.06;5031966;28;20038;-69
2022/10/15 11:39:32;;;;;;;5.68;4.72;;;;;;;15.94;94.84;100420.56;5032588;28;20140;-69
2022/10/15 11:42:28;;;;;;;5.78;4.00;;;;;;;16.03;94.63;100416.53;5027526;28;20574;-69
2022/10/15 11:45:18;;;;;;;4.90;3.90;;;;;;;16.07;94.91;100413.59;5031981;28;20057;-71